sensor_id;sensor_type;location;lat;lon;timestamp;P1;durP1;ratioP1;P2;durP2;ratioP2
67442;SDS011;54311;51.726;5.154;2024-03-22T00:00:00;67.22;;;42.10;;
67442;SDS011;54311;51.726;5.154;2024-03-22T00:02:25;66.28;;;42.35;;
67442;SDS011;54311;51.726;5.154;2024-03-22T00:04:50;68.47;;;41.85;;
67442;SDS011;54311;51.726;5.154;2024-03-22T00:07:16;71.30;;;43.40;;
67442;SDS011;54311;51.726;5.154;2024-03-22T00:09:41;71.88;;;43.45;;
67442;SDS011;54311;51.726;5.154;2024-03-22T00:12:06;67.35;;;42.35;;
67442;SDS011;54311;51.726;5.154;2024-03-22T00:14:32;64.32;;;39.83;;
67442;SDS011;54311;51.726;5.154;2024-03-22T00:16:57;72.55;;;42.72;;
67442;SDS011;54311;51.726;5.154;2024-03-22T00:19:22;65.18;;;41.28;;
67442;SDS011;54311;51.726;5.154;2024-03-22T00:21:48;63.63;;;42.42;;
67442;SDS011;54311;51.726;5.154;2024-03-22T00:24:13;69.22;;;43.30;;
67442;SDS011;54311;51.726;5.154;2024-03-22T00:26:38;69.20;;;42.97;;
67442;SDS011;54311;51.726;5.154;2024-03-22T00:29:04;65.05;;;43.88;;
67442;SDS011;54311;51.726;5.154;2024-03-22T00:31:29;70.40;;;41.85;;
67442;SDS011;54311;51.726;5.154;2024-03-22T00:33:55;71.50;;;44.00;;
67442;SDS011;54311;51.726;5.154;2024-03-22T00:36:20;70.75;;;43.30;;
67442;SDS011;54311;51.726;5.154;2024-03-22T00:38:46;66.50;;;42.38;;
67442;SDS011;54311;51.726;5.154;2024-03-22T00:41:12;67.32;;;40.53;;
67442;SDS011;54311;51.726;5.154;2024-03-22T00:43:37;65.70;;;42.63;;
67442;SDS011;54311;51.726;5.154;2024-03-22T00:46:02;71.40;;;43.47;;
67442;SDS011;54311;51.726;5.154;2024-03-22T00:48:28;66.72;;;45.03;;
67442;SDS011;54311;51.726;5.154;2024-03-22T00:50:54;64.15;;;43.25;;
67442;SDS011;54311;51.726;5.154;2024-03-22T00:53:19;69.07;;;42.45;;
67442;SDS011;54311;51.726;5.154;2024-03-22T00:55:44;70.68;;;42.65;;
67442;SDS011;54311;51.726;5.154;2024-03-22T00:58:11;71.15;;;43.20;;
67442;SDS011;54311;51.726;5.154;2024-03-22T01:00:36;67.13;;;43.45;;
67442;SDS011;54311;51.726;5.154;2024-03-22T01:03:03;67.32;;;43.30;;
67442;SDS011;54311;51.726;5.154;2024-03-22T01:05:28;64.35;;;43.78;;
67442;SDS011;54311;51.726;5.154;2024-03-22T01:07:53;72.03;;;44.40;;
67442;SDS011;54311;51.726;5.154;2024-03-22T01:10:19;70.03;;;44.08;;
67442;SDS011;54311;51.726;5.154;2024-03-22T01:12:44;68.30;;;43.25;;
67442;SDS011;54311;51.726;5.154;2024-03-22T01:15:10;66.65;;;43.05;;
67442;SDS011;54311;51.726;5.154;2024-03-22T01:17:35;65.20;;;42.85;;
67442;SDS011;54311;51.726;5.154;2024-03-22T01:20:01;68.18;;;41.30;;
67442;SDS011;54311;51.726;5.154;2024-03-22T01:22:27;68.13;;;43.28;;
67442;SDS011;54311;51.726;5.154;2024-03-22T01:24:52;69.22;;;41.80;;
67442;SDS011;54311;51.726;5.154;2024-03-22T01:27:18;64.45;;;42.17;;
67442;SDS011;54311;51.726;5.154;2024-03-22T01:29:43;70.25;;;42.83;;
67442;SDS011;54311;51.726;5.154;2024-03-22T01:32:09;67.10;;;43.67;;
67442;SDS011;54311;51.726;5.154;2024-03-22T01:34:35;74.75;;;43.20;;
67442;SDS011;54311;51.726;5.154;2024-03-22T01:37:00;61.97;;;42.30;;
67442;SDS011;54311;51.726;5.154;2024-03-22T01:39:26;62.30;;;41.47;;
67442;SDS011;54311;51.726;5.154;2024-03-22T01:41:52;65.97;;;43.47;;
67442;SDS011;54311;51.726;5.154;2024-03-22T01:44:17;64.38;;;42.38;;
67442;SDS011;54311;51.726;5.154;2024-03-22T01:46:43;65.13;;;41.53;;
67442;SDS011;54311;51.726;5.154;2024-03-22T01:49:09;66.60;;;42.95;;
67442;SDS011;54311;51.726;5.154;2024-03-22T01:51:35;63.35;;;42.63;;
67442;SDS011;54311;51.726;5.154;2024-03-22T01:54:04;68.20;;;41.88;;
67442;SDS011;54311;51.726;5.154;2024-03-22T01:56:29;59.08;;;40.72;;
67442;SDS011;54311;51.726;5.154;2024-03-22T01:58:55;64.30;;;42.45;;
67442;SDS011;54311;51.726;5.154;2024-03-22T02:01:21;59.88;;;39.78;;
67442;SDS011;54311;51.726;5.154;2024-03-22T02:03:46;61.60;;;38.80;;
67442;SDS011;54311;51.726;5.154;2024-03-22T02:06:12;67.75;;;41.47;;
67442;SDS011;54311;51.726;5.154;2024-03-22T02:08:37;62.13;;;40.88;;
67442;SDS011;54311;51.726;5.154;2024-03-22T02:11:05;59.80;;;40.35;;
67442;SDS011;54311;51.726;5.154;2024-03-22T02:13:31;64.03;;;42.33;;
67442;SDS011;54311;51.726;5.154;2024-03-22T02:15:56;59.72;;;40.90;;
67442;SDS011;54311;51.726;5.154;2024-03-22T02:18:22;58.67;;;40.65;;
67442;SDS011;54311;51.726;5.154;2024-03-22T02:20:47;64.85;;;40.05;;
67442;SDS011;54311;51.726;5.154;2024-03-22T02:23:13;63.05;;;39.85;;
67442;SDS011;54311;51.726;5.154;2024-03-22T02:25:38;60.92;;;40.75;;
67442;SDS011;54311;51.726;5.154;2024-03-22T02:28:04;64.88;;;39.60;;
67442;SDS011;54311;51.726;5.154;2024-03-22T02:30:29;63.00;;;40.42;;
67442;SDS011;54311;51.726;5.154;2024-03-22T02:32:54;57.85;;;40.03;;
67442;SDS011;54311;51.726;5.154;2024-03-22T02:35:20;60.38;;;40.00;;
67442;SDS011;54311;51.726;5.154;2024-03-22T02:37:45;58.35;;;39.90;;
67442;SDS011;54311;51.726;5.154;2024-03-22T02:40:11;57.83;;;40.92;;
67442;SDS011;54311;51.726;5.154;2024-03-22T02:42:36;53.00;;;36.78;;
67442;SDS011;54311;51.726;5.154;2024-03-22T02:45:02;62.38;;;39.15;;
67442;SDS011;54311;51.726;5.154;2024-03-22T02:47:27;49.70;;;35.35;;
67442;SDS011;54311;51.726;5.154;2024-03-22T02:49:52;49.25;;;35.33;;
67442;SDS011;54311;51.726;5.154;2024-03-22T02:52:18;53.55;;;34.80;;
67442;SDS011;54311;51.726;5.154;2024-03-22T02:54:43;52.88;;;34.97;;
67442;SDS011;54311;51.726;5.154;2024-03-22T02:57:08;54.55;;;35.47;;
67442;SDS011;54311;51.726;5.154;2024-03-22T02:59:34;46.70;;;34.80;;
67442;SDS011;54311;51.726;5.154;2024-03-22T03:01:59;48.67;;;33.45;;
67442;SDS011;54311;51.726;5.154;2024-03-22T03:04:24;48.83;;;34.13;;
67442;SDS011;54311;51.726;5.154;2024-03-22T03:06:50;46.15;;;33.08;;
67442;SDS011;54311;51.726;5.154;2024-03-22T03:09:15;45.45;;;32.03;;
67442;SDS011;54311;51.726;5.154;2024-03-22T03:11:40;47.65;;;33.28;;
67442;SDS011;54311;51.726;5.154;2024-03-22T03:14:06;42.45;;;31.70;;
67442;SDS011;54311;51.726;5.154;2024-03-22T03:16:31;49.97;;;32.53;;
67442;SDS011;54311;51.726;5.154;2024-03-22T03:18:57;43.38;;;30.90;;
67442;SDS011;54311;51.726;5.154;2024-03-22T03:21:22;42.20;;;30.42;;
67442;SDS011;54311;51.726;5.154;2024-03-22T03:23:47;41.72;;;30.15;;
67442;SDS011;54311;51.726;5.154;2024-03-22T03:26:13;43.53;;;29.45;;
67442;SDS011;54311;51.726;5.154;2024-03-22T03:28:38;37.70;;;30.23;;
67442;SDS011;54311;51.726;5.154;2024-03-22T03:31:03;40.72;;;30.30;;
67442;SDS011;54311;51.726;5.154;2024-03-22T03:33:29;37.15;;;29.27;;
67442;SDS011;54311;51.726;5.154;2024-03-22T03:35:54;43.95;;;31.33;;
67442;SDS011;54311;51.726;5.154;2024-03-22T03:38:20;42.75;;;30.20;;
67442;SDS011;54311;51.726;5.154;2024-03-22T03:40:46;43.92;;;29.85;;
67442;SDS011;54311;51.726;5.154;2024-03-22T03:43:11;40.92;;;29.70;;
67442;SDS011;54311;51.726;5.154;2024-03-22T03:45:38;40.50;;;28.27;;
67442;SDS011;54311;51.726;5.154;2024-03-22T03:48:03;40.03;;;29.27;;
67442;SDS011;54311;51.726;5.154;2024-03-22T03:50:29;43.47;;;29.92;;
67442;SDS011;54311;51.726;5.154;2024-03-22T03:52:54;41.35;;;29.20;;
67442;SDS011;54311;51.726;5.154;2024-03-22T03:55:21;41.72;;;29.02;;
67442;SDS011;54311;51.726;5.154;2024-03-22T03:57:47;39.63;;;30.20;;
67442;SDS011;54311;51.726;5.154;2024-03-22T04:00:12;39.13;;;28.67;;
67442;SDS011;54311;51.726;5.154;2024-03-22T04:02:38;43.25;;;28.92;;
67442;SDS011;54311;51.726;5.154;2024-03-22T04:05:03;44.38;;;30.42;;
67442;SDS011;54311;51.726;5.154;2024-03-22T04:07:28;41.40;;;29.88;;
67442;SDS011;54311;51.726;5.154;2024-03-22T04:09:54;40.28;;;28.55;;
67442;SDS011;54311;51.726;5.154;2024-03-22T04:12:19;39.95;;;28.65;;
67442;SDS011;54311;51.726;5.154;2024-03-22T04:14:45;41.55;;;28.85;;
67442;SDS011;54311;51.726;5.154;2024-03-22T04:17:10;42.80;;;28.83;;
67442;SDS011;54311;51.726;5.154;2024-03-22T04:19:36;42.47;;;30.35;;
67442;SDS011;54311;51.726;5.154;2024-03-22T04:22:01;37.10;;;29.45;;
67442;SDS011;54311;51.726;5.154;2024-03-22T04:24:27;40.92;;;29.65;;
67442;SDS011;54311;51.726;5.154;2024-03-22T04:26:52;41.67;;;28.80;;
67442;SDS011;54311;51.726;5.154;2024-03-22T04:29:17;41.70;;;29.45;;
67442;SDS011;54311;51.726;5.154;2024-03-22T04:31:43;42.33;;;29.77;;
67442;SDS011;54311;51.726;5.154;2024-03-22T04:34:08;38.10;;;27.63;;
67442;SDS011;54311;51.726;5.154;2024-03-22T04:36:33;39.53;;;27.83;;
67442;SDS011;54311;51.726;5.154;2024-03-22T04:38:59;40.10;;;28.30;;
67442;SDS011;54311;51.726;5.154;2024-03-22T04:41:24;40.28;;;27.13;;
67442;SDS011;54311;51.726;5.154;2024-03-22T04:43:49;41.10;;;28.88;;
67442;SDS011;54311;51.726;5.154;2024-03-22T04:46:15;37.08;;;27.23;;
67442;SDS011;54311;51.726;5.154;2024-03-22T04:48:40;41.03;;;28.23;;
67442;SDS011;54311;51.726;5.154;2024-03-22T04:51:05;41.42;;;28.25;;
67442;SDS011;54311;51.726;5.154;2024-03-22T04:53:31;42.42;;;28.13;;
67442;SDS011;54311;51.726;5.154;2024-03-22T04:55:56;36.08;;;25.83;;
67442;SDS011;54311;51.726;5.154;2024-03-22T04:58:21;39.03;;;27.55;;
67442;SDS011;54311;51.726;5.154;2024-03-22T05:00:47;38.42;;;26.88;;
67442;SDS011;54311;51.726;5.154;2024-03-22T05:03:13;36.08;;;26.52;;
67442;SDS011;54311;51.726;5.154;2024-03-22T05:05:39;36.55;;;27.00;;
67442;SDS011;54311;51.726;5.154;2024-03-22T05:08:05;35.00;;;27.15;;
67442;SDS011;54311;51.726;5.154;2024-03-22T05:10:31;36.17;;;26.98;;
67442;SDS011;54311;51.726;5.154;2024-03-22T05:12:57;34.78;;;25.15;;
67442;SDS011;54311;51.726;5.154;2024-03-22T05:15:22;36.03;;;24.92;;
67442;SDS011;54311;51.726;5.154;2024-03-22T05:17:48;33.72;;;25.02;;
67442;SDS011;54311;51.726;5.154;2024-03-22T05:20:14;32.15;;;23.70;;
67442;SDS011;54311;51.726;5.154;2024-03-22T05:22:40;34.35;;;25.08;;
67442;SDS011;54311;51.726;5.154;2024-03-22T05:25:07;30.77;;;24.33;;
67442;SDS011;54311;51.726;5.154;2024-03-22T05:27:33;35.00;;;25.33;;
67442;SDS011;54311;51.726;5.154;2024-03-22T05:29:58;33.08;;;24.95;;
67442;SDS011;54311;51.726;5.154;2024-03-22T05:32:24;31.45;;;24.60;;
67442;SDS011;54311;51.726;5.154;2024-03-22T05:34:50;38.55;;;26.00;;
67442;SDS011;54311;51.726;5.154;2024-03-22T05:37:16;34.42;;;25.23;;
67442;SDS011;54311;51.726;5.154;2024-03-22T05:39:41;35.75;;;25.00;;
67442;SDS011;54311;51.726;5.154;2024-03-22T05:42:07;35.20;;;26.27;;
67442;SDS011;54311;51.726;5.154;2024-03-22T05:44:33;34.05;;;25.33;;
67442;SDS011;54311;51.726;5.154;2024-03-22T05:46:58;37.00;;;26.77;;
67442;SDS011;54311;51.726;5.154;2024-03-22T05:49:23;39.88;;;26.20;;
67442;SDS011;54311;51.726;5.154;2024-03-22T05:51:49;34.00;;;26.17;;
67442;SDS011;54311;51.726;5.154;2024-03-22T05:54:14;36.95;;;25.15;;
67442;SDS011;54311;51.726;5.154;2024-03-22T05:56:39;31.48;;;24.77;;
67442;SDS011;54311;51.726;5.154;2024-03-22T05:59:05;39.78;;;26.60;;
67442;SDS011;54311;51.726;5.154;2024-03-22T06:01:31;29.67;;;23.77;;
67442;SDS011;54311;51.726;5.154;2024-03-22T06:03:57;34.83;;;26.02;;
67442;SDS011;54311;51.726;5.154;2024-03-22T06:06:22;31.17;;;23.92;;
67442;SDS011;54311;51.726;5.154;2024-03-22T06:08:50;31.45;;;22.92;;
67442;SDS011;54311;51.726;5.154;2024-03-22T06:11:17;33.28;;;24.83;;
67442;SDS011;54311;51.726;5.154;2024-03-22T06:13:43;32.05;;;23.42;;
67442;SDS011;54311;51.726;5.154;2024-03-22T06:16:08;32.20;;;24.67;;
67442;SDS011;54311;51.726;5.154;2024-03-22T06:18:34;33.60;;;25.25;;
67442;SDS011;54311;51.726;5.154;2024-03-22T06:20:59;32.83;;;25.83;;
67442;SDS011;54311;51.726;5.154;2024-03-22T06:23:24;37.40;;;26.40;;
67442;SDS011;54311;51.726;5.154;2024-03-22T06:25:53;38.83;;;25.98;;
67442;SDS011;54311;51.726;5.154;2024-03-22T06:28:20;35.15;;;26.15;;
67442;SDS011;54311;51.726;5.154;2024-03-22T06:30:45;35.40;;;27.27;;
67442;SDS011;54311;51.726;5.154;2024-03-22T06:33:11;35.45;;;26.52;;
67442;SDS011;54311;51.726;5.154;2024-03-22T06:35:36;37.13;;;26.83;;
67442;SDS011;54311;51.726;5.154;2024-03-22T06:38:01;38.00;;;28.50;;
67442;SDS011;54311;51.726;5.154;2024-03-22T06:40:27;34.03;;;25.63;;
67442;SDS011;54311;51.726;5.154;2024-03-22T06:42:53;32.92;;;24.80;;
67442;SDS011;54311;51.726;5.154;2024-03-22T06:45:19;36.20;;;25.60;;
67442;SDS011;54311;51.726;5.154;2024-03-22T06:47:44;33.20;;;26.17;;
67442;SDS011;54311;51.726;5.154;2024-03-22T06:50:10;31.83;;;25.45;;
67442;SDS011;54311;51.726;5.154;2024-03-22T06:52:36;36.10;;;25.80;;
67442;SDS011;54311;51.726;5.154;2024-03-22T06:55:01;34.88;;;27.63;;
67442;SDS011;54311;51.726;5.154;2024-03-22T06:57:26;37.42;;;27.08;;
67442;SDS011;54311;51.726;5.154;2024-03-22T06:59:52;33.50;;;26.27;;
67442;SDS011;54311;51.726;5.154;2024-03-22T07:02:17;36.65;;;26.73;;
67442;SDS011;54311;51.726;5.154;2024-03-22T07:04:43;36.28;;;25.42;;
67442;SDS011;54311;51.726;5.154;2024-03-22T07:07:09;35.83;;;25.42;;
67442;SDS011;54311;51.726;5.154;2024-03-22T07:09:34;36.10;;;27.85;;
67442;SDS011;54311;51.726;5.154;2024-03-22T07:12:00;35.35;;;25.67;;
67442;SDS011;54311;51.726;5.154;2024-03-22T07:14:26;33.45;;;25.58;;
67442;SDS011;54311;51.726;5.154;2024-03-22T07:16:51;36.83;;;26.92;;
67442;SDS011;54311;51.726;5.154;2024-03-22T07:19:19;34.22;;;26.88;;
67442;SDS011;54311;51.726;5.154;2024-03-22T07:21:45;37.53;;;26.55;;
67442;SDS011;54311;51.726;5.154;2024-03-22T07:24:11;36.17;;;27.35;;
67442;SDS011;54311;51.726;5.154;2024-03-22T07:26:36;36.05;;;27.48;;
67442;SDS011;54311;51.726;5.154;2024-03-22T07:29:02;35.38;;;25.42;;
67442;SDS011;54311;51.726;5.154;2024-03-22T07:31:27;35.60;;;26.30;;
67442;SDS011;54311;51.726;5.154;2024-03-22T07:33:53;35.03;;;27.23;;
67442;SDS011;54311;51.726;5.154;2024-03-22T07:36:18;33.83;;;27.67;;
67442;SDS011;54311;51.726;5.154;2024-03-22T07:38:44;33.80;;;25.85;;
67442;SDS011;54311;51.726;5.154;2024-03-22T07:41:09;34.47;;;25.15;;
67442;SDS011;54311;51.726;5.154;2024-03-22T07:43:34;35.70;;;24.48;;
67442;SDS011;54311;51.726;5.154;2024-03-22T07:46:00;32.58;;;24.48;;
67442;SDS011;54311;51.726;5.154;2024-03-22T07:48:25;37.20;;;26.38;;
67442;SDS011;54311;51.726;5.154;2024-03-22T07:50:57;35.75;;;24.58;;
67442;SDS011;54311;51.726;5.154;2024-03-22T07:53:23;30.20;;;23.60;;
67442;SDS011;54311;51.726;5.154;2024-03-22T07:55:48;32.75;;;24.13;;
67442;SDS011;54311;51.726;5.154;2024-03-22T07:58:14;36.35;;;24.27;;
67442;SDS011;54311;51.726;5.154;2024-03-22T08:00:39;32.33;;;24.98;;
67442;SDS011;54311;51.726;5.154;2024-03-22T08:03:04;33.33;;;23.50;;
67442;SDS011;54311;51.726;5.154;2024-03-22T08:05:30;29.77;;;22.33;;
67442;SDS011;54311;51.726;5.154;2024-03-22T08:07:55;34.97;;;22.83;;
67442;SDS011;54311;51.726;5.154;2024-03-22T08:10:20;30.02;;;22.30;;
67442;SDS011;54311;51.726;5.154;2024-03-22T08:12:46;28.60;;;21.05;;
67442;SDS011;54311;51.726;5.154;2024-03-22T08:15:11;27.65;;;21.05;;
67442;SDS011;54311;51.726;5.154;2024-03-22T08:17:37;26.20;;;20.42;;
67442;SDS011;54311;51.726;5.154;2024-03-22T08:20:02;29.38;;;21.17;;
67442;SDS011;54311;51.726;5.154;2024-03-22T08:22:28;25.55;;;21.38;;
67442;SDS011;54311;51.726;5.154;2024-03-22T08:24:53;30.23;;;21.25;;
67442;SDS011;54311;51.726;5.154;2024-03-22T08:27:21;27.38;;;19.08;;
67442;SDS011;54311;51.726;5.154;2024-03-22T08:29:46;26.50;;;20.73;;
67442;SDS011;54311;51.726;5.154;2024-03-22T08:32:11;28.13;;;20.60;;
67442;SDS011;54311;51.726;5.154;2024-03-22T08:34:37;33.38;;;21.00;;
67442;SDS011;54311;51.726;5.154;2024-03-22T08:37:02;27.80;;;21.08;;
67442;SDS011;54311;51.726;5.154;2024-03-22T08:39:28;27.15;;;20.65;;
67442;SDS011;54311;51.726;5.154;2024-03-22T08:41:54;27.58;;;21.02;;
67442;SDS011;54311;51.726;5.154;2024-03-22T08:44:20;30.90;;;20.33;;
67442;SDS011;54311;51.726;5.154;2024-03-22T08:46:45;26.85;;;21.00;;
67442;SDS011;54311;51.726;5.154;2024-03-22T08:49:11;25.85;;;19.40;;
67442;SDS011;54311;51.726;5.154;2024-03-22T08:51:37;27.67;;;20.98;;
67442;SDS011;54311;51.726;5.154;2024-03-22T08:54:02;27.63;;;20.20;;
67442;SDS011;54311;51.726;5.154;2024-03-22T08:56:28;26.50;;;19.80;;
67442;SDS011;54311;51.726;5.154;2024-03-22T08:58:54;29.70;;;22.33;;
67442;SDS011;54311;51.726;5.154;2024-03-22T09:01:20;28.70;;;21.90;;
67442;SDS011;54311;51.726;5.154;2024-03-22T09:03:45;29.23;;;21.45;;
67442;SDS011;54311;51.726;5.154;2024-03-22T09:06:11;30.40;;;21.20;;
67442;SDS011;54311;51.726;5.154;2024-03-22T09:08:39;35.17;;;21.35;;
67442;SDS011;54311;51.726;5.154;2024-03-22T09:11:05;39.58;;;22.77;;
67442;SDS011;54311;51.726;5.154;2024-03-22T09:13:30;31.50;;;22.98;;
67442;SDS011;54311;51.726;5.154;2024-03-22T09:15:58;35.20;;;21.85;;
67442;SDS011;54311;51.726;5.154;2024-03-22T09:18:24;31.70;;;22.42;;
67442;SDS011;54311;51.726;5.154;2024-03-22T09:20:50;31.05;;;23.02;;
67442;SDS011;54311;51.726;5.154;2024-03-22T09:23:15;30.77;;;23.02;;
67442;SDS011;54311;51.726;5.154;2024-03-22T09:25:40;38.92;;;23.75;;
67442;SDS011;54311;51.726;5.154;2024-03-22T09:28:06;32.92;;;24.13;;
67442;SDS011;54311;51.726;5.154;2024-03-22T09:30:31;29.20;;;21.88;;
67442;SDS011;54311;51.726;5.154;2024-03-22T09:32:56;29.33;;;23.13;;
67442;SDS011;54311;51.726;5.154;2024-03-22T09:35:22;31.00;;;22.92;;
67442;SDS011;54311;51.726;5.154;2024-03-22T09:37:48;33.20;;;22.38;;
67442;SDS011;54311;51.726;5.154;2024-03-22T09:40:13;32.30;;;23.63;;
67442;SDS011;54311;51.726;5.154;2024-03-22T09:42:38;33.92;;;23.42;;
67442;SDS011;54311;51.726;5.154;2024-03-22T09:45:09;30.63;;;22.48;;
67442;SDS011;54311;51.726;5.154;2024-03-22T09:47:36;32.53;;;24.73;;
67442;SDS011;54311;51.726;5.154;2024-03-22T09:50:02;41.80;;;24.42;;
67442;SDS011;54311;51.726;5.154;2024-03-22T09:52:29;29.73;;;22.98;;
67442;SDS011;54311;51.726;5.154;2024-03-22T09:54:56;27.13;;;23.27;;
67442;SDS011;54311;51.726;5.154;2024-03-22T09:57:21;29.75;;;22.35;;
67442;SDS011;54311;51.726;5.154;2024-03-22T09:59:47;30.50;;;22.55;;
67442;SDS011;54311;51.726;5.154;2024-03-22T10:02:13;31.75;;;22.40;;
67442;SDS011;54311;51.726;5.154;2024-03-22T10:04:39;28.83;;;22.50;;
67442;SDS011;54311;51.726;5.154;2024-03-22T10:07:05;34.70;;;21.52;;
67442;SDS011;54311;51.726;5.154;2024-03-22T10:09:31;30.85;;;22.55;;
67442;SDS011;54311;51.726;5.154;2024-03-22T10:11:57;30.08;;;23.23;;
67442;SDS011;54311;51.726;5.154;2024-03-22T10:14:23;31.30;;;21.92;;
67442;SDS011;54311;51.726;5.154;2024-03-22T10:16:51;30.60;;;21.92;;
67442;SDS011;54311;51.726;5.154;2024-03-22T10:19:20;33.22;;;22.50;;
67442;SDS011;54311;51.726;5.154;2024-03-22T10:22:07;31.10;;;22.83;;
67442;SDS011;54311;51.726;5.154;2024-03-22T10:24:32;30.70;;;21.15;;
67442;SDS011;54311;51.726;5.154;2024-03-22T10:27:00;30.77;;;20.88;;
67442;SDS011;54311;51.726;5.154;2024-03-22T10:29:26;32.90;;;22.75;;
67442;SDS011;54311;51.726;5.154;2024-03-22T10:31:53;37.10;;;24.00;;
67442;SDS011;54311;51.726;5.154;2024-03-22T10:34:23;29.95;;;23.20;;
67442;SDS011;54311;51.726;5.154;2024-03-22T10:36:49;34.58;;;23.70;;
67442;SDS011;54311;51.726;5.154;2024-03-22T10:39:18;26.48;;;20.30;;
67442;SDS011;54311;51.726;5.154;2024-03-22T10:41:45;29.08;;;20.48;;
67442;SDS011;54311;51.726;5.154;2024-03-22T10:44:10;26.55;;;20.10;;
67442;SDS011;54311;51.726;5.154;2024-03-22T10:46:37;26.90;;;20.70;;
67442;SDS011;54311;51.726;5.154;2024-03-22T10:49:03;29.80;;;19.88;;
67442;SDS011;54311;51.726;5.154;2024-03-22T10:51:30;26.65;;;21.10;;
67442;SDS011;54311;51.726;5.154;2024-03-22T10:53:57;26.02;;;20.38;;
67442;SDS011;54311;51.726;5.154;2024-03-22T10:56:23;24.33;;;19.48;;
67442;SDS011;54311;51.726;5.154;2024-03-22T10:58:49;30.58;;;20.48;;
67442;SDS011;54311;51.726;5.154;2024-03-22T11:01:23;23.98;;;20.25;;
67442;SDS011;54311;51.726;5.154;2024-03-22T11:03:49;25.33;;;20.85;;
67442;SDS011;54311;51.726;5.154;2024-03-22T11:06:17;26.27;;;21.38;;
67442;SDS011;54311;51.726;5.154;2024-03-22T11:08:44;24.65;;;19.33;;
67442;SDS011;54311;51.726;5.154;2024-03-22T11:11:11;23.55;;;19.00;;
67442;SDS011;54311;51.726;5.154;2024-03-22T11:13:37;24.90;;;18.30;;
67442;SDS011;54311;51.726;5.154;2024-03-22T11:16:04;22.10;;;18.75;;
67442;SDS011;54311;51.726;5.154;2024-03-22T11:18:29;22.42;;;16.90;;
67442;SDS011;54311;51.726;5.154;2024-03-22T11:20:55;19.85;;;17.35;;
67442;SDS011;54311;51.726;5.154;2024-03-22T11:23:20;18.55;;;16.75;;
67442;SDS011;54311;51.726;5.154;2024-03-22T11:25:45;18.70;;;15.68;;
67442;SDS011;54311;51.726;5.154;2024-03-22T11:28:11;17.40;;;15.43;;
67442;SDS011;54311;51.726;5.154;2024-03-22T11:30:37;15.40;;;13.90;;
67442;SDS011;54311;51.726;5.154;2024-03-22T11:33:03;15.18;;;13.45;;
67442;SDS011;54311;51.726;5.154;2024-03-22T11:35:30;14.93;;;13.38;;
67442;SDS011;54311;51.726;5.154;2024-03-22T11:37:55;14.90;;;13.40;;
67442;SDS011;54311;51.726;5.154;2024-03-22T11:40:23;14.50;;;13.13;;
67442;SDS011;54311;51.726;5.154;2024-03-22T11:42:51;17.65;;;13.65;;
67442;SDS011;54311;51.726;5.154;2024-03-22T11:45:17;16.00;;;13.65;;
67442;SDS011;54311;51.726;5.154;2024-03-22T11:47:43;14.30;;;12.90;;
67442;SDS011;54311;51.726;5.154;2024-03-22T11:50:11;13.70;;;12.05;;
67442;SDS011;54311;51.726;5.154;2024-03-22T11:52:40;14.10;;;12.80;;
67442;SDS011;54311;51.726;5.154;2024-03-22T11:55:11;13.40;;;12.32;;
67442;SDS011;54311;51.726;5.154;2024-03-22T11:57:37;13.60;;;12.35;;
67442;SDS011;54311;51.726;5.154;2024-03-22T12:00:03;13.13;;;11.82;;
67442;SDS011;54311;51.726;5.154;2024-03-22T12:02:33;13.68;;;12.38;;
67442;SDS011;54311;51.726;5.154;2024-03-22T12:04:59;13.85;;;12.48;;
67442;SDS011;54311;51.726;5.154;2024-03-22T12:07:25;14.43;;;13.00;;
67442;SDS011;54311;51.726;5.154;2024-03-22T12:09:51;13.35;;;11.82;;
67442;SDS011;54311;51.726;5.154;2024-03-22T12:12:17;13.85;;;12.55;;
67442;SDS011;54311;51.726;5.154;2024-03-22T12:14:42;14.05;;;12.38;;
67442;SDS011;54311;51.726;5.154;2024-03-22T12:17:07;12.70;;;11.32;;
67442;SDS011;54311;51.726;5.154;2024-03-22T12:19:34;11.27;;;10.27;;
67442;SDS011;54311;51.726;5.154;2024-03-22T12:21:59;11.20;;;10.20;;
67442;SDS011;54311;51.726;5.154;2024-03-22T12:24:25;11.07;;;10.18;;
67442;SDS011;54311;51.726;5.154;2024-03-22T12:26:52;10.20;;;9.35;;
67442;SDS011;54311;51.726;5.154;2024-03-22T12:29:18;8.18;;;7.68;;
67442;SDS011;54311;51.726;5.154;2024-03-22T12:31:44;9.32;;;8.70;;
67442;SDS011;54311;51.726;5.154;2024-03-22T12:34:09;9.43;;;8.82;;
67442;SDS011;54311;51.726;5.154;2024-03-22T12:36:35;10.00;;;9.30;;
67442;SDS011;54311;51.726;5.154;2024-03-22T12:39:00;9.90;;;9.25;;
67442;SDS011;54311;51.726;5.154;2024-03-22T12:41:25;9.52;;;8.85;;
67442;SDS011;54311;51.726;5.154;2024-03-22T12:43:52;9.93;;;9.02;;
67442;SDS011;54311;51.726;5.154;2024-03-22T12:46:17;9.55;;;8.82;;
67442;SDS011;54311;51.726;5.154;2024-03-22T12:48:42;9.55;;;8.85;;
67442;SDS011;54311;51.726;5.154;2024-03-22T12:51:08;10.20;;;9.48;;
67442;SDS011;54311;51.726;5.154;2024-03-22T12:53:33;9.93;;;9.02;;
67442;SDS011;54311;51.726;5.154;2024-03-22T12:55:59;9.68;;;8.88;;
67442;SDS011;54311;51.726;5.154;2024-03-22T12:58:24;9.13;;;8.48;;
67442;SDS011;54311;51.726;5.154;2024-03-22T13:00:49;11.15;;;10.15;;
67442;SDS011;54311;51.726;5.154;2024-03-22T13:03:15;13.57;;;11.40;;
67442;SDS011;54311;51.726;5.154;2024-03-22T13:05:41;14.52;;;10.45;;
67442;SDS011;54311;51.726;5.154;2024-03-22T13:08:07;16.17;;;10.80;;
67442;SDS011;54311;51.726;5.154;2024-03-22T13:10:32;11.95;;;10.75;;
67442;SDS011;54311;51.726;5.154;2024-03-22T13:12:58;14.88;;;11.93;;
67442;SDS011;54311;51.726;5.154;2024-03-22T13:15:23;15.00;;;13.32;;
67442;SDS011;54311;51.726;5.154;2024-03-22T13:17:49;17.38;;;13.65;;
67442;SDS011;54311;51.726;5.154;2024-03-22T13:20:14;16.42;;;12.95;;
67442;SDS011;54311;51.726;5.154;2024-03-22T13:22:43;14.98;;;12.45;;
67442;SDS011;54311;51.726;5.154;2024-03-22T13:25:08;17.98;;;12.90;;
67442;SDS011;54311;51.726;5.154;2024-03-22T13:27:35;17.48;;;12.40;;
67442;SDS011;54311;51.726;5.154;2024-03-22T13:30:01;14.93;;;11.43;;
67442;SDS011;54311;51.726;5.154;2024-03-22T13:32:27;14.40;;;11.25;;
67442;SDS011;54311;51.726;5.154;2024-03-22T13:34:52;13.60;;;11.10;;
67442;SDS011;54311;51.726;5.154;2024-03-22T13:37:18;12.25;;;10.98;;
67442;SDS011;54311;51.726;5.154;2024-03-22T13:39:47;12.88;;;10.68;;
67442;SDS011;54311;51.726;5.154;2024-03-22T13:42:15;12.93;;;10.77;;
67442;SDS011;54311;51.726;5.154;2024-03-22T13:44:41;13.15;;;10.25;;
67442;SDS011;54311;51.726;5.154;2024-03-22T13:47:07;16.35;;;11.68;;
67442;SDS011;54311;51.726;5.154;2024-03-22T13:49:32;17.67;;;10.75;;
67442;SDS011;54311;51.726;5.154;2024-03-22T13:51:58;16.95;;;10.98;;
67442;SDS011;54311;51.726;5.154;2024-03-22T13:54:26;19.08;;;10.95;;
67442;SDS011;54311;51.726;5.154;2024-03-22T13:56:52;16.25;;;10.77;;
67442;SDS011;54311;51.726;5.154;2024-03-22T13:59:17;14.20;;;11.50;;
67442;SDS011;54311;51.726;5.154;2024-03-22T14:01:42;15.70;;;12.50;;
67442;SDS011;54311;51.726;5.154;2024-03-22T14:04:10;15.18;;;13.13;;
67442;SDS011;54311;51.726;5.154;2024-03-22T14:06:36;14.43;;;12.95;;
67442;SDS011;54311;51.726;5.154;2024-03-22T14:09:02;16.55;;;12.77;;
67442;SDS011;54311;51.726;5.154;2024-03-22T14:11:29;14.15;;;11.85;;
67442;SDS011;54311;51.726;5.154;2024-03-22T14:13:56;11.32;;;10.43;;